PDT,Max TemperatureF,Mean TemperatureF,Min TemperatureF,Max Dew PointF,MeanDew PointF,Min DewpointF,Max Humidity, Mean Humidity, Min Humidity, Max Sea Level PressureIn, Mean Sea Level PressureIn, Min Sea Level PressureIn, Max VisibilityMiles, Mean VisibilityMiles, Min VisibilityMiles, Max Wind SpeedMPH, Mean Wind SpeedMPH, Max Gust SpeedMPH,PrecipitationIn, CloudCover, Events, WindDirDegrees
2012-10-1,105,86,66,62,56,49,78,48,17,29.92,29.86,29.78,10,10,10,10,2,15,0.00,0,,271
2012-10-2,96,82,67,66,59,52,73,52,30,29.86,29.82,29.78,10,10,8,9,2,14,0.00,0,,192
2012-10-3,86,77,67,66,63,59,93,68,42,30.02,29.94,29.87,10,6,0,10,3,13,0.00,2,Fog,204
2012-10-4,81,75,68,61,58,56,76,61,45,30.10,30.05,30.01,10,8,6,10,3,26,0.00,4,,242
2012-10-5,81,73,65,61,58,56,78,62,45,30.05,29.99,29.93,10,9,8,12,3,17,0.00,3,,182
2012-10-6,82,73,63,63,60,57,81,64,47,29.96,29.92,29.86,10,10,7,9,3,13,0.00,1,,187
2012-10-7,82,74,66,63,61,59,81,64,47,29.93,29.89,29.85,10,10,10,10,3,14,0.00,1,,162
2012-10-8,81,73,65,61,60,58,81,66,51,29.97,29.94,29.91,10,10,8,10,3,,0.00,3,,105
2012-10-9,79,71,63,59,57,55,78,63,48,29.99,29.95,29.91,10,10,10,10,3,15,0.00,4,,173
2012-10-10,78,70,62,58,55,51,78,59,40,29.99,29.94,29.88,10,10,10,9,4,44,0.00,1,,204
2012-10-11,73,67,61,57,54,50,78,64,49,29.97,29.91,29.88,10,9,1,10,4,,0.14,3,Rain,113
2012-10-12,74,66,57,55,52,50,80,62,44,30.15,30.08,29.98,10,10,10,10,3,24,T,3,,124
2012-10-13,82,70,58,57,53,50,80,58,35,30.19,30.11,30.02,10,10,10,9,2,20,0.00,0,,78
2012-10-14,99,79,59,56,52,44,80,48,16,30.05,29.98,29.91,10,10,8,12,3,20,0.00,0,,290
2012-10-15,92,77,62,53,49,45,67,44,21,29.92,29.87,29.82,10,10,10,10,3,17,0.00,0,,215
2012-10-16,95,78,61,61,55,48,81,52,23,29.87,29.80,29.72,10,9,2,10,1,30,0.00,0,,220
2012-10-17,99,81,63,58,52,44,78,47,16,29.82,29.75,29.72,10,10,7,9,2,21,0.00,0,,203
2012-10-18,82,78,73,66,60,46,74,55,36,30.06,29.99,29.83,10,10,10,14,6,17,0.00,4,,179
2012-10-19,83,74,65,64,62,60,81,66,51,30.01,29.94,29.87,10,9,5,10,3,21,0.00,4,,259
2012-10-20,74,71,68,63,61,60,81,73,64,29.91,29.87,29.82,10,9,2,10,5,16,T,8,Rain,160
2012-10-21,77,72,67,61,59,57,81,68,54,29.91,29.88,29.85,10,10,10,12,5,23,0.00,6,,168
2012-10-22,74,70,66,58,55,52,73,60,46,29.99,29.94,29.89,10,10,10,13,5,18,0.00,7,,210
2012-10-23,74,67,60,56,51,43,84,59,33,29.99,29.95,29.92,10,10,3,12,3,15,0.01,4,Rain,191
2012-10-24,76,68,59,52,49,43,75,54,33,30.04,30.00,29.96,10,10,10,12,4,17,0.00,1,,85
2012-10-25,83,69,55,53,46,38,67,44,21,30.06,29.99,29.92,10,10,10,9,2,14,0.00,0,,200
2012-10-26,90,74,57,49,28,15,64,36,8,30.01,29.94,29.89,10,10,10,23,8,28,0.00,0,,79
2012-10-27,95,76,56,39,32,24,43,26,8,29.90,29.86,29.79,10,10,10,8,3,,0.00,0,,273
2012-10-28,87,72,56,56,45,37,57,38,19,30.01,29.93,29.89,10,10,10,8,2,12,0.00,0,,182
2012-10-29,88,71,54,51,46,37,77,48,18,30.08,30.03,29.99,10,10,9,12,1,21,0.00,0,,204
2012-10-30,80,67,53,54,48,43,72,50,28,30.06,30.02,29.96,10,9,5,9,2,,0.00,0,,200
2012-10-31,77,68,59,57,54,51,84,64,43,30.06,30.01,29.95,10,5,2,8,2,17,0.00,5,,121